Arbyrd, MO

9:14 AM CDT on May 30, 2017 (GMT -0500)
Farmers Union Gin, Senath, MO | | Change Station
Active Advisory: Flood Advisory Active Notice: Flood Advisory

Elev 253 ft 36.13 °N, 90.17 °W | Updated 25 seconds ago

Partly Cloudy
Partly Cloudy
73.0 °F
Feels Like 77 °F
N
6.5
Wind Variable Wind from South
Gusts 7.4 mph

Today
High -- | Low -- °F
--% Chance of Precip.
Yesterday
High -- | Low -- °F
Precip. -- in
Pressure 30.08 in
Visibility 10.0 miles
Clouds Scattered Clouds 7500 ft
Scattered Clouds 15000 ft
Heat Index 77 °F
Dew Point 55 °F
Humidity 54%
Rainfall 0.01 in
Snow Depth Not available.
5:46 AM 8:11 PM
Waxing Crescent, 30% visible
SPECI KBYH 301325Z 12004KT 10SM SCT075 SCT150 24/17 A3008 RMK TSE:10 TS MOV E
Pressure 30.08 in
Visibility 10.0 miles
Clouds Scattered Clouds 7500 ft
Scattered Clouds 15000 ft
Heat Index 77 °F
Dew Point 55 °F
Humidity 54%
Rainfall 0.01 in
Snow Depth Not available.
5:46 AM 8:11 PM
Waxing Crescent, 30% visible
SPECI KBYH 301325Z 12004KT 10SM SCT075 SCT150 24/17 A3008 RMK TSE:10 TS MOV E

Get Your Daily Forecast Email!

Thanks for signing up!

Be on the lookout for a verification email in your inbox.

You'll start receiving severe weather alerts in your inbox..

×

10-Day Weather Forecast

Almanac

Astronomy

May. 30, 2017 Rise Set
Actual Time
Civil Twilight
Nautical Twilight
Astronomical Twilight
Moon
Length of Visible Light
Length of Day
Tomorrow will be .
, % of the Moon is Illuminated

Today's Extremes

State Highs State Lows

Community

WunderPhotos

Category 6

Welcome to Category 6. This is the collective home for Weather Underground's featured writeups by Dr. Jeff Masters (right), Bob Henson (left), Chris Burt, and other regular contributors.

Nearby

Air Quality

  Air Quality AQ Index Pollutant
Not available.

Snow Depth

Station Depth Elevation

Earthquake Activity

City Distance Mag. Time & Date
Minimum magnitude displayed is 2.5.

Coastal Water Temperatures

Place Temperature

Stations

Nearby Weather Stations

Station Location Temp. Windchill Dew Point Humidity Wind Precip. Elev Updated Type
                   

Watches & Warnings

Flood Advisory
Issued: 8:06 PM CDT May. 29, 2017 – National Weather Service

The National Weather Service in Memphis TN has issued a
* flood advisory for
the Saint Francis river near Saint Francis
* from Monday may 29 until Friday June 02.
* At 07 PM Monday the stage was 24.1 feet.
* Flood stage is 22.0 feet.
* Forecast... the river will rise to near 24.0 feet Tuesday may 30.
* At 25.0 feet... flood water begins flowing over the lower places in
the levee near County Highway 338 north of Saint Francis.


Lat... Lon 3663 9014 3636 9000 3603 9028 3610 9038
      3633 9018 3649 9021